sensor_id;sensor_type;location;lat;lon;timestamp;P1;durP1;ratioP1;P2;durP2;ratioP2
1977;SDS011;989;53.016;8.346;2024-02-16T00:00:39;1.97;;;1.60;;
1977;SDS011;989;53.016;8.346;2024-02-16T00:03:05;3.07;;;2.00;;
1977;SDS011;989;53.016;8.346;2024-02-16T00:05:30;1.93;;;1.80;;
1977;SDS011;989;53.016;8.346;2024-02-16T00:07:56;1.50;;;1.40;;
1977;SDS011;989;53.016;8.346;2024-02-16T00:10:22;1.87;;;1.70;;
1977;SDS011;989;53.016;8.346;2024-02-16T00:12:47;2.13;;;1.83;;
1977;SDS011;989;53.016;8.346;2024-02-16T00:15:12;1.60;;;1.50;;
1977;SDS011;989;53.016;8.346;2024-02-16T00:17:38;2.03;;;1.80;;
1977;SDS011;989;53.016;8.346;2024-02-16T00:20:03;2.20;;;1.70;;
1977;SDS011;989;53.016;8.346;2024-02-16T00:22:32;4.07;;;1.90;;
1977;SDS011;989;53.016;8.346;2024-02-16T00:24:57;2.90;;;2.00;;
1977;SDS011;989;53.016;8.346;2024-02-16T00:27:23;5.43;;;1.80;;
1977;SDS011;989;53.016;8.346;2024-02-16T00:29:48;1.53;;;1.43;;
1977;SDS011;989;53.016;8.346;2024-02-16T00:32:14;4.20;;;2.07;;
1977;SDS011;989;53.016;8.346;2024-02-16T00:34:40;2.50;;;1.40;;
1977;SDS011;989;53.016;8.346;2024-02-16T00:37:06;1.53;;;1.47;;
1977;SDS011;989;53.016;8.346;2024-02-16T00:39:36;4.73;;;1.93;;
1977;SDS011;989;53.016;8.346;2024-02-16T00:42:02;3.30;;;1.77;;
1977;SDS011;989;53.016;8.346;2024-02-16T00:44:28;1.60;;;1.50;;
1977;SDS011;989;53.016;8.346;2024-02-16T00:46:53;2.23;;;1.63;;
1977;SDS011;989;53.016;8.346;2024-02-16T00:49:19;9.23;;;2.40;;
1977;SDS011;989;53.016;8.346;2024-02-16T00:51:44;2.57;;;1.30;;
1977;SDS011;989;53.016;8.346;2024-02-16T00:54:10;5.60;;;2.20;;
1977;SDS011;989;53.016;8.346;2024-02-16T00:56:35;1.60;;;1.50;;
1977;SDS011;989;53.016;8.346;2024-02-16T00:59:00;1.17;;;1.17;;
1977;SDS011;989;53.016;8.346;2024-02-16T01:01:26;2.60;;;1.93;;
1977;SDS011;989;53.016;8.346;2024-02-16T01:03:52;2.67;;;1.57;;
1977;SDS011;989;53.016;8.346;2024-02-16T01:06:18;1.60;;;1.50;;
1977;SDS011;989;53.016;8.346;2024-02-16T01:08:43;1.80;;;1.57;;
1977;SDS011;989;53.016;8.346;2024-02-16T01:11:08;1.60;;;1.40;;
1977;SDS011;989;53.016;8.346;2024-02-16T01:13:34;1.43;;;1.33;;
1977;SDS011;989;53.016;8.346;2024-02-16T01:15:59;3.67;;;1.53;;
1977;SDS011;989;53.016;8.346;2024-02-16T01:18:25;2.23;;;1.47;;
1977;SDS011;989;53.016;8.346;2024-02-16T01:20:52;1.77;;;1.40;;
1977;SDS011;989;53.016;8.346;2024-02-16T01:23:18;2.80;;;1.57;;
1977;SDS011;989;53.016;8.346;2024-02-16T01:25:43;2.80;;;1.87;;
1977;SDS011;989;53.016;8.346;2024-02-16T01:28:09;1.90;;;1.40;;
1977;SDS011;989;53.016;8.346;2024-02-16T01:30:37;2.77;;;1.77;;
1977;SDS011;989;53.016;8.346;2024-02-16T01:33:02;2.30;;;1.40;;
1977;SDS011;989;53.016;8.346;2024-02-16T01:35:28;1.40;;;1.30;;
1977;SDS011;989;53.016;8.346;2024-02-16T01:37:53;2.93;;;1.43;;
1977;SDS011;989;53.016;8.346;2024-02-16T01:40:19;1.60;;;1.27;;
1977;SDS011;989;53.016;8.346;2024-02-16T01:42:44;2.00;;;1.43;;
1977;SDS011;989;53.016;8.346;2024-02-16T01:45:10;2.40;;;1.43;;
1977;SDS011;989;53.016;8.346;2024-02-16T01:47:37;1.70;;;1.50;;
1977;SDS011;989;53.016;8.346;2024-02-16T01:50:02;1.67;;;1.43;;
1977;SDS011;989;53.016;8.346;2024-02-16T01:52:28;5.03;;;1.73;;
1977;SDS011;989;53.016;8.346;2024-02-16T01:54:55;1.80;;;1.70;;
1977;SDS011;989;53.016;8.346;2024-02-16T01:57:21;1.40;;;1.30;;
1977;SDS011;989;53.016;8.346;2024-02-16T01:59:47;7.20;;;2.77;;
1977;SDS011;989;53.016;8.346;2024-02-16T02:02:12;1.40;;;1.30;;
1977;SDS011;989;53.016;8.346;2024-02-16T02:04:38;1.93;;;1.40;;
1977;SDS011;989;53.016;8.346;2024-02-16T02:07:13;1.63;;;1.40;;
1977;SDS011;989;53.016;8.346;2024-02-16T02:09:39;1.60;;;1.33;;
1977;SDS011;989;53.016;8.346;2024-02-16T02:12:04;1.87;;;1.37;;
1977;SDS011;989;53.016;8.346;2024-02-16T02:14:30;2.80;;;1.70;;
1977;SDS011;989;53.016;8.346;2024-02-16T02:16:55;2.97;;;1.40;;
1977;SDS011;989;53.016;8.346;2024-02-16T02:19:21;2.67;;;1.97;;
1977;SDS011;989;53.016;8.346;2024-02-16T02:21:46;2.50;;;1.67;;
1977;SDS011;989;53.016;8.346;2024-02-16T02:24:11;3.10;;;1.70;;
1977;SDS011;989;53.016;8.346;2024-02-16T02:26:37;2.07;;;1.40;;
1977;SDS011;989;53.016;8.346;2024-02-16T02:29:03;1.10;;;1.10;;
1977;SDS011;989;53.016;8.346;2024-02-16T02:31:29;1.80;;;1.27;;
1977;SDS011;989;53.016;8.346;2024-02-16T02:33:55;1.93;;;1.40;;
1977;SDS011;989;53.016;8.346;2024-02-16T02:36:20;1.50;;;1.40;;
1977;SDS011;989;53.016;8.346;2024-02-16T02:38:46;3.67;;;1.77;;
1977;SDS011;989;53.016;8.346;2024-02-16T02:41:12;1.90;;;1.40;;
1977;SDS011;989;53.016;8.346;2024-02-16T02:43:37;3.10;;;1.60;;
1977;SDS011;989;53.016;8.346;2024-02-16T02:46:03;2.00;;;1.40;;
1977;SDS011;989;53.016;8.346;2024-02-16T02:48:28;1.40;;;1.23;;
1977;SDS011;989;53.016;8.346;2024-02-16T02:50:53;3.60;;;1.60;;
1977;SDS011;989;53.016;8.346;2024-02-16T02:53:19;2.97;;;1.57;;
1977;SDS011;989;53.016;8.346;2024-02-16T02:55:44;1.23;;;1.13;;
1977;SDS011;989;53.016;8.346;2024-02-16T02:58:10;1.23;;;1.23;;
1977;SDS011;989;53.016;8.346;2024-02-16T03:00:35;1.73;;;1.23;;
1977;SDS011;989;53.016;8.346;2024-02-16T03:03:00;1.57;;;1.20;;
1977;SDS011;989;53.016;8.346;2024-02-16T03:05:26;1.73;;;1.53;;
1977;SDS011;989;53.016;8.346;2024-02-16T03:07:52;2.60;;;1.53;;
1977;SDS011;989;53.016;8.346;2024-02-16T03:10:17;2.20;;;1.33;;
1977;SDS011;989;53.016;8.346;2024-02-16T03:12:46;1.57;;;1.10;;
1977;SDS011;989;53.016;8.346;2024-02-16T03:15:14;2.03;;;1.13;;
1977;SDS011;989;53.016;8.346;2024-02-16T03:17:39;1.63;;;1.47;;
1977;SDS011;989;53.016;8.346;2024-02-16T03:20:05;2.40;;;1.40;;
1977;SDS011;989;53.016;8.346;2024-02-16T03:22:32;1.57;;;1.07;;
1977;SDS011;989;53.016;8.346;2024-02-16T03:24:58;1.10;;;1.10;;
1977;SDS011;989;53.016;8.346;2024-02-16T03:27:23;2.10;;;1.00;;
1977;SDS011;989;53.016;8.346;2024-02-16T03:29:48;2.43;;;1.40;;
1977;SDS011;989;53.016;8.346;2024-02-16T03:32:14;2.13;;;1.10;;
1977;SDS011;989;53.016;8.346;2024-02-16T03:34:39;0.97;;;0.97;;
1977;SDS011;989;53.016;8.346;2024-02-16T03:37:04;3.80;;;1.50;;
1977;SDS011;989;53.016;8.346;2024-02-16T03:39:30;1.37;;;1.27;;
1977;SDS011;989;53.016;8.346;2024-02-16T03:41:55;1.00;;;1.00;;
1977;SDS011;989;53.016;8.346;2024-02-16T03:44:21;2.70;;;1.47;;
1977;SDS011;989;53.016;8.346;2024-02-16T03:46:46;1.67;;;1.30;;
1977;SDS011;989;53.016;8.346;2024-02-16T03:49:12;3.10;;;1.33;;
1977;SDS011;989;53.016;8.346;2024-02-16T03:51:37;3.17;;;1.40;;
1977;SDS011;989;53.016;8.346;2024-02-16T03:54:02;1.03;;;1.03;;
1977;SDS011;989;53.016;8.346;2024-02-16T03:56:29;1.70;;;1.60;;
1977;SDS011;989;53.016;8.346;2024-02-16T03:58:55;1.73;;;1.33;;
1977;SDS011;989;53.016;8.346;2024-02-16T04:01:20;1.67;;;1.43;;
1977;SDS011;989;53.016;8.346;2024-02-16T04:03:45;2.00;;;1.10;;
1977;SDS011;989;53.016;8.346;2024-02-16T04:06:11;2.80;;;1.27;;
1977;SDS011;989;53.016;8.346;2024-02-16T04:08:36;2.47;;;1.30;;
1977;SDS011;989;53.016;8.346;2024-02-16T04:11:02;6.53;;;1.73;;
1977;SDS011;989;53.016;8.346;2024-02-16T04:13:27;1.60;;;1.37;;
1977;SDS011;989;53.016;8.346;2024-02-16T04:15:53;2.47;;;1.50;;
1977;SDS011;989;53.016;8.346;2024-02-16T04:18:19;2.60;;;1.43;;
1977;SDS011;989;53.016;8.346;2024-02-16T04:20:44;2.30;;;1.67;;
1977;SDS011;989;53.016;8.346;2024-02-16T04:23:09;2.60;;;1.13;;
1977;SDS011;989;53.016;8.346;2024-02-16T04:25:35;2.13;;;1.50;;
1977;SDS011;989;53.016;8.346;2024-02-16T04:28:00;2.57;;;1.40;;
1977;SDS011;989;53.016;8.346;2024-02-16T04:30:26;1.67;;;1.30;;
1977;SDS011;989;53.016;8.346;2024-02-16T04:32:51;1.93;;;1.23;;
1977;SDS011;989;53.016;8.346;2024-02-16T04:35:16;8.00;;;2.20;;
1977;SDS011;989;53.016;8.346;2024-02-16T04:37:42;1.77;;;1.27;;
1977;SDS011;989;53.016;8.346;2024-02-16T04:40:08;1.40;;;1.30;;
1977;SDS011;989;53.016;8.346;2024-02-16T04:42:37;2.07;;;1.43;;
1977;SDS011;989;53.016;8.346;2024-02-16T04:45:03;2.33;;;1.57;;
1977;SDS011;989;53.016;8.346;2024-02-16T04:47:28;4.80;;;1.70;;
1977;SDS011;989;53.016;8.346;2024-02-16T04:49:53;1.10;;;1.10;;
1977;SDS011;989;53.016;8.346;2024-02-16T04:52:19;3.00;;;1.60;;
1977;SDS011;989;53.016;8.346;2024-02-16T04:54:44;1.93;;;1.60;;
1977;SDS011;989;53.016;8.346;2024-02-16T04:57:10;1.53;;;1.43;;
1977;SDS011;989;53.016;8.346;2024-02-16T04:59:35;3.00;;;1.67;;
1977;SDS011;989;53.016;8.346;2024-02-16T05:02:00;3.23;;;1.47;;
1977;SDS011;989;53.016;8.346;2024-02-16T05:04:26;1.60;;;1.50;;
1977;SDS011;989;53.016;8.346;2024-02-16T05:06:51;4.00;;;1.47;;
1977;SDS011;989;53.016;8.346;2024-02-16T05:09:17;1.70;;;1.40;;
1977;SDS011;989;53.016;8.346;2024-02-16T05:11:43;4.70;;;1.70;;
1977;SDS011;989;53.016;8.346;2024-02-16T05:14:12;1.40;;;1.30;;
1977;SDS011;989;53.016;8.346;2024-02-16T05:16:42;1.70;;;1.50;;
1977;SDS011;989;53.016;8.346;2024-02-16T05:19:08;5.83;;;1.60;;
1977;SDS011;989;53.016;8.346;2024-02-16T05:21:33;2.67;;;1.47;;
1977;SDS011;989;53.016;8.346;2024-02-16T05:24:00;4.60;;;2.10;;
1977;SDS011;989;53.016;8.346;2024-02-16T05:26:25;1.63;;;1.10;;
1977;SDS011;989;53.016;8.346;2024-02-16T05:28:51;3.03;;;1.60;;
1977;SDS011;989;53.016;8.346;2024-02-16T05:31:16;4.70;;;1.70;;
1977;SDS011;989;53.016;8.346;2024-02-16T05:33:44;6.93;;;1.77;;
1977;SDS011;989;53.016;8.346;2024-02-16T05:36:10;1.57;;;1.47;;
1977;SDS011;989;53.016;8.346;2024-02-16T05:38:35;4.43;;;1.70;;
1977;SDS011;989;53.016;8.346;2024-02-16T05:41:06;1.77;;;1.67;;
1977;SDS011;989;53.016;8.346;2024-02-16T05:43:32;1.43;;;1.33;;
1977;SDS011;989;53.016;8.346;2024-02-16T05:45:58;3.73;;;1.67;;
1977;SDS011;989;53.016;8.346;2024-02-16T05:48:24;1.50;;;1.33;;
1977;SDS011;989;53.016;8.346;2024-02-16T05:50:51;2.93;;;1.67;;
1977;SDS011;989;53.016;8.346;2024-02-16T05:53:17;2.20;;;1.50;;
1977;SDS011;989;53.016;8.346;2024-02-16T05:55:43;6.53;;;1.70;;
1977;SDS011;989;53.016;8.346;2024-02-16T05:58:09;3.50;;;1.50;;
1977;SDS011;989;53.016;8.346;2024-02-16T06:00:35;9.93;;;2.50;;
1977;SDS011;989;53.016;8.346;2024-02-16T06:03:01;3.43;;;1.77;;
1977;SDS011;989;53.016;8.346;2024-02-16T06:05:26;3.23;;;1.60;;
1977;SDS011;989;53.016;8.346;2024-02-16T06:07:52;1.60;;;1.50;;
1977;SDS011;989;53.016;8.346;2024-02-16T06:10:18;1.60;;;1.50;;
1977;SDS011;989;53.016;8.346;2024-02-16T06:12:43;2.00;;;1.23;;
1977;SDS011;989;53.016;8.346;2024-02-16T06:15:09;2.60;;;2.37;;
1977;SDS011;989;53.016;8.346;2024-02-16T06:17:34;2.60;;;1.50;;
1977;SDS011;989;53.016;8.346;2024-02-16T06:20:01;4.43;;;1.83;;
1977;SDS011;989;53.016;8.346;2024-02-16T06:22:28;2.20;;;1.63;;
1977;SDS011;989;53.016;8.346;2024-02-16T06:24:56;2.83;;;1.87;;
1977;SDS011;989;53.016;8.346;2024-02-16T06:27:22;1.63;;;1.53;;
1977;SDS011;989;53.016;8.346;2024-02-16T06:29:48;2.67;;;1.80;;
1977;SDS011;989;53.016;8.346;2024-02-16T06:32:14;1.90;;;1.67;;
1977;SDS011;989;53.016;8.346;2024-02-16T06:34:42;1.60;;;1.50;;
1977;SDS011;989;53.016;8.346;2024-02-16T06:37:07;1.83;;;1.57;;
1977;SDS011;989;53.016;8.346;2024-02-16T06:39:33;1.73;;;1.63;;
1977;SDS011;989;53.016;8.346;2024-02-16T06:41:58;1.50;;;1.33;;
1977;SDS011;989;53.016;8.346;2024-02-16T06:44:25;1.90;;;1.80;;
1977;SDS011;989;53.016;8.346;2024-02-16T06:46:50;8.00;;;2.27;;
1977;SDS011;989;53.016;8.346;2024-02-16T06:49:16;1.67;;;1.33;;
1977;SDS011;989;53.016;8.346;2024-02-16T06:51:41;1.30;;;1.20;;
1977;SDS011;989;53.016;8.346;2024-02-16T06:54:07;1.90;;;1.40;;
1977;SDS011;989;53.016;8.346;2024-02-16T06:56:32;1.73;;;1.63;;
1977;SDS011;989;53.016;8.346;2024-02-16T06:58:58;2.90;;;1.43;;
1977;SDS011;989;53.016;8.346;2024-02-16T07:01:23;2.03;;;1.27;;
1977;SDS011;989;53.016;8.346;2024-02-16T07:03:49;1.60;;;1.40;;
1977;SDS011;989;53.016;8.346;2024-02-16T07:06:15;2.50;;;1.47;;
1977;SDS011;989;53.016;8.346;2024-02-16T07:08:41;3.03;;;2.00;;
1977;SDS011;989;53.016;8.346;2024-02-16T07:11:06;1.70;;;1.60;;
1977;SDS011;989;53.016;8.346;2024-02-16T07:13:32;1.77;;;1.67;;
1977;SDS011;989;53.016;8.346;2024-02-16T07:15:58;2.90;;;1.60;;
1977;SDS011;989;53.016;8.346;2024-02-16T07:18:24;2.63;;;2.00;;
1977;SDS011;989;53.016;8.346;2024-02-16T07:20:49;6.17;;;2.10;;
1977;SDS011;989;53.016;8.346;2024-02-16T07:23:14;2.10;;;1.70;;
1977;SDS011;989;53.016;8.346;2024-02-16T07:25:40;1.40;;;1.17;;
1977;SDS011;989;53.016;8.346;2024-02-16T07:28:06;2.10;;;1.37;;
1977;SDS011;989;53.016;8.346;2024-02-16T07:30:32;2.67;;;1.77;;
1977;SDS011;989;53.016;8.346;2024-02-16T07:32:58;4.90;;;1.80;;
1977;SDS011;989;53.016;8.346;2024-02-16T07:35:24;2.13;;;1.40;;
1977;SDS011;989;53.016;8.346;2024-02-16T07:37:50;2.90;;;2.13;;
1977;SDS011;989;53.016;8.346;2024-02-16T07:40:18;1.77;;;1.60;;
1977;SDS011;989;53.016;8.346;2024-02-16T07:42:44;3.57;;;1.73;;
1977;SDS011;989;53.016;8.346;2024-02-16T07:45:10;2.43;;;1.60;;
1977;SDS011;989;53.016;8.346;2024-02-16T07:47:36;15.20;;;3.60;;
1977;SDS011;989;53.016;8.346;2024-02-16T07:50:02;5.73;;;2.30;;
1977;SDS011;989;53.016;8.346;2024-02-16T07:52:28;9.33;;;2.23;;
1977;SDS011;989;53.016;8.346;2024-02-16T07:54:54;2.93;;;2.00;;
1977;SDS011;989;53.016;8.346;2024-02-16T07:57:19;2.63;;;1.63;;
1977;SDS011;989;53.016;8.346;2024-02-16T07:59:44;2.50;;;1.50;;
1977;SDS011;989;53.016;8.346;2024-02-16T08:02:10;3.77;;;1.80;;
1977;SDS011;989;53.016;8.346;2024-02-16T08:04:40;2.90;;;1.57;;
1977;SDS011;989;53.016;8.346;2024-02-16T08:07:06;2.00;;;1.40;;
1977;SDS011;989;53.016;8.346;2024-02-16T08:09:31;3.53;;;1.57;;
1977;SDS011;989;53.016;8.346;2024-02-16T08:11:56;4.83;;;2.23;;
1977;SDS011;989;53.016;8.346;2024-02-16T08:14:22;4.23;;;1.70;;
1977;SDS011;989;53.016;8.346;2024-02-16T08:16:47;1.60;;;1.40;;
1977;SDS011;989;53.016;8.346;2024-02-16T08:19:13;5.97;;;2.07;;
1977;SDS011;989;53.016;8.346;2024-02-16T08:21:39;5.47;;;1.57;;
1977;SDS011;989;53.016;8.346;2024-02-16T08:24:04;1.87;;;1.57;;
1977;SDS011;989;53.016;8.346;2024-02-16T08:26:30;2.90;;;1.73;;
1977;SDS011;989;53.016;8.346;2024-02-16T08:28:55;5.20;;;1.60;;
1977;SDS011;989;53.016;8.346;2024-02-16T08:31:21;2.30;;;1.97;;
1977;SDS011;989;53.016;8.346;2024-02-16T08:33:47;2.70;;;1.67;;
1977;SDS011;989;53.016;8.346;2024-02-16T08:36:12;3.00;;;1.70;;
1977;SDS011;989;53.016;8.346;2024-02-16T08:38:38;5.23;;;1.97;;
1977;SDS011;989;53.016;8.346;2024-02-16T08:41:03;3.33;;;1.90;;
1977;SDS011;989;53.016;8.346;2024-02-16T08:43:29;3.10;;;1.53;;
1977;SDS011;989;53.016;8.346;2024-02-16T08:45:54;3.40;;;2.30;;
1977;SDS011;989;53.016;8.346;2024-02-16T08:48:19;2.70;;;2.10;;
1977;SDS011;989;53.016;8.346;2024-02-16T08:50:45;2.40;;;1.87;;
1977;SDS011;989;53.016;8.346;2024-02-16T08:53:10;3.27;;;1.60;;
1977;SDS011;989;53.016;8.346;2024-02-16T08:55:36;4.00;;;1.80;;
1977;SDS011;989;53.016;8.346;2024-02-16T08:58:01;2.67;;;1.80;;
1977;SDS011;989;53.016;8.346;2024-02-16T09:00:26;2.57;;;1.87;;
1977;SDS011;989;53.016;8.346;2024-02-16T09:02:53;5.87;;;2.90;;
1977;SDS011;989;53.016;8.346;2024-02-16T09:05:19;6.07;;;2.50;;
1977;SDS011;989;53.016;8.346;2024-02-16T09:07:44;3.27;;;1.90;;
1977;SDS011;989;53.016;8.346;2024-02-16T09:10:12;3.77;;;1.97;;
1977;SDS011;989;53.016;8.346;2024-02-16T09:12:37;4.33;;;2.00;;
1977;SDS011;989;53.016;8.346;2024-02-16T09:15:02;5.90;;;2.60;;
1977;SDS011;989;53.016;8.346;2024-02-16T09:17:29;2.00;;;1.70;;
1977;SDS011;989;53.016;8.346;2024-02-16T09:19:54;5.47;;;1.87;;
1977;SDS011;989;53.016;8.346;2024-02-16T09:22:19;2.57;;;1.87;;
1977;SDS011;989;53.016;8.346;2024-02-16T09:24:45;4.63;;;2.10;;
1977;SDS011;989;53.016;8.346;2024-02-16T09:27:12;2.10;;;1.80;;
1977;SDS011;989;53.016;8.346;2024-02-16T09:29:37;2.20;;;1.90;;
1977;SDS011;989;53.016;8.346;2024-02-16T09:32:03;2.97;;;2.30;;
1977;SDS011;989;53.016;8.346;2024-02-16T09:34:29;4.03;;;1.80;;
1977;SDS011;989;53.016;8.346;2024-02-16T09:36:54;4.00;;;3.10;;
1977;SDS011;989;53.016;8.346;2024-02-16T09:39:19;2.60;;;2.23;;
1977;SDS011;989;53.016;8.346;2024-02-16T09:41:45;2.80;;;2.07;;
1977;SDS011;989;53.016;8.346;2024-02-16T09:44:15;3.77;;;1.73;;
1977;SDS011;989;53.016;8.346;2024-02-16T09:46:41;3.60;;;2.20;;
1977;SDS011;989;53.016;8.346;2024-02-16T09:49:07;4.10;;;2.50;;
1977;SDS011;989;53.016;8.346;2024-02-16T09:51:36;4.00;;;2.40;;
1977;SDS011;989;53.016;8.346;2024-02-16T09:54:03;3.80;;;2.20;;
1977;SDS011;989;53.016;8.346;2024-02-16T09:56:28;4.93;;;2.23;;
1977;SDS011;989;53.016;8.346;2024-02-16T09:58:54;3.20;;;2.30;;
1977;SDS011;989;53.016;8.346;2024-02-16T10:01:22;3.70;;;2.53;;
1977;SDS011;989;53.016;8.346;2024-02-16T10:03:48;2.40;;;1.83;;
1977;SDS011;989;53.016;8.346;2024-02-16T10:06:14;5.57;;;1.53;;
1977;SDS011;989;53.016;8.346;2024-02-16T10:08:47;5.60;;;2.43;;
1977;SDS011;989;53.016;8.346;2024-02-16T10:11:16;4.37;;;2.13;;
1977;SDS011;989;53.016;8.346;2024-02-16T10:13:53;6.80;;;3.03;;
1977;SDS011;989;53.016;8.346;2024-02-16T10:16:22;3.63;;;2.43;;
1977;SDS011;989;53.016;8.346;2024-02-16T10:18:47;4.60;;;2.57;;
1977;SDS011;989;53.016;8.346;2024-02-16T10:21:12;6.03;;;2.50;;
1977;SDS011;989;53.016;8.346;2024-02-16T10:23:38;4.03;;;2.43;;
1977;SDS011;989;53.016;8.346;2024-02-16T10:26:03;6.63;;;2.50;;
1977;SDS011;989;53.016;8.346;2024-02-16T10:28:29;8.60;;;2.30;;
1977;SDS011;989;53.016;8.346;2024-02-16T10:30:59;3.30;;;2.13;;
1977;SDS011;989;53.016;8.346;2024-02-16T10:33:26;4.70;;;2.70;;
1977;SDS011;989;53.016;8.346;2024-02-16T10:35:53;9.40;;;2.80;;
1977;SDS011;989;53.016;8.346;2024-02-16T10:38:21;6.70;;;2.37;;
1977;SDS011;989;53.016;8.346;2024-02-16T10:40:47;3.43;;;2.37;;
1977;SDS011;989;53.016;8.346;2024-02-16T10:43:13;4.50;;;2.70;;
1977;SDS011;989;53.016;8.346;2024-02-16T10:45:39;9.70;;;3.03;;
1977;SDS011;989;53.016;8.346;2024-02-16T10:48:05;2.93;;;2.23;;
1977;SDS011;989;53.016;8.346;2024-02-16T10:50:32;8.90;;;3.00;;
1977;SDS011;989;53.016;8.346;2024-02-16T10:52:59;5.20;;;3.03;;
1977;SDS011;989;53.016;8.346;2024-02-16T10:55:28;6.10;;;2.47;;
1977;SDS011;989;53.016;8.346;2024-02-16T10:57:55;5.30;;;2.50;;
1977;SDS011;989;53.016;8.346;2024-02-16T11:00:21;5.90;;;2.80;;
1977;SDS011;989;53.016;8.346;2024-02-16T11:03:05;6.00;;;3.00;;
1977;SDS011;989;53.016;8.346;2024-02-16T11:05:32;5.30;;;2.63;;
1977;SDS011;989;53.016;8.346;2024-02-16T11:08:01;4.97;;;2.90;;
1977;SDS011;989;53.016;8.346;2024-02-16T11:10:30;6.40;;;2.90;;
1977;SDS011;989;53.016;8.346;2024-02-16T11:12:59;4.93;;;2.80;;
1977;SDS011;989;53.016;8.346;2024-02-16T11:15:30;7.07;;;2.67;;
1977;SDS011;989;53.016;8.346;2024-02-16T11:17:57;4.67;;;2.77;;
1977;SDS011;989;53.016;8.346;2024-02-16T11:20:25;7.20;;;3.40;;
1977;SDS011;989;53.016;8.346;2024-02-16T11:22:53;10.57;;;3.27;;
1977;SDS011;989;53.016;8.346;2024-02-16T11:25:49;3.57;;;2.80;;
1977;SDS011;989;53.016;8.346;2024-02-16T11:28:04;5.40;;;2.87;;
1977;SDS011;989;53.016;8.346;2024-02-16T11:30:33;4.50;;;2.80;;
1977;SDS011;989;53.016;8.346;2024-02-16T11:33:02;5.17;;;2.53;;
1977;SDS011;989;53.016;8.346;2024-02-16T11:35:27;4.90;;;2.87;;
1977;SDS011;989;53.016;8.346;2024-02-16T11:37:55;8.97;;;3.30;;
1977;SDS011;989;53.016;8.346;2024-02-16T11:40:20;7.50;;;4.77;;
1977;SDS011;989;53.016;8.346;2024-02-16T11:42:46;8.07;;;3.10;;
1977;SDS011;989;53.016;8.346;2024-02-16T11:45:12;5.63;;;2.83;;
1977;SDS011;989;53.016;8.346;2024-02-16T11:47:37;4.60;;;3.23;;
1977;SDS011;989;53.016;8.346;2024-02-16T11:50:07;5.00;;;2.73;;
1977;SDS011;989;53.016;8.346;2024-02-16T11:52:36;4.00;;;2.37;;
1977;SDS011;989;53.016;8.346;2024-02-16T11:55:03;3.40;;;2.60;;
1977;SDS011;989;53.016;8.346;2024-02-16T11:57:29;4.70;;;3.03;;
1977;SDS011;989;53.016;8.346;2024-02-16T11:59:55;2.70;;;2.17;;
1977;SDS011;989;53.016;8.346;2024-02-16T12:02:20;3.10;;;2.83;;
1977;SDS011;989;53.016;8.346;2024-02-16T12:04:47;6.07;;;2.70;;
1977;SDS011;989;53.016;8.346;2024-02-16T12:07:12;3.37;;;2.63;;
1977;SDS011;989;53.016;8.346;2024-02-16T12:09:39;4.80;;;2.70;;
1977;SDS011;989;53.016;8.346;2024-02-16T12:12:04;7.00;;;3.13;;
1977;SDS011;989;53.016;8.346;2024-02-16T12:14:30;5.03;;;3.33;;
1977;SDS011;989;53.016;8.346;2024-02-16T12:16:56;4.27;;;2.63;;
1977;SDS011;989;53.016;8.346;2024-02-16T12:19:23;8.77;;;3.20;;
1977;SDS011;989;53.016;8.346;2024-02-16T12:21:49;2.10;;;1.90;;
1977;SDS011;989;53.016;8.346;2024-02-16T12:24:15;3.50;;;2.83;;
1977;SDS011;989;53.016;8.346;2024-02-16T12:26:41;3.60;;;2.90;;
1977;SDS011;989;53.016;8.346;2024-02-16T12:29:07;6.60;;;3.30;;
1977;SDS011;989;53.016;8.346;2024-02-16T12:31:33;4.07;;;2.60;;
1977;SDS011;989;53.016;8.346;2024-02-16T12:34:02;6.20;;;3.30;;
1977;SDS011;989;53.016;8.346;2024-02-16T12:36:29;6.30;;;3.13;;
1977;SDS011;989;53.016;8.346;2024-02-16T12:38:54;8.17;;;2.80;;
1977;SDS011;989;53.016;8.346;2024-02-16T12:41:20;4.27;;;3.00;;
1977;SDS011;989;53.016;8.346;2024-02-16T12:43:45;2.80;;;2.03;;
1977;SDS011;989;53.016;8.346;2024-02-16T12:46:10;3.73;;;3.00;;
1977;SDS011;989;53.016;8.346;2024-02-16T12:48:36;4.83;;;3.30;;
1977;SDS011;989;53.016;8.346;2024-02-16T12:51:01;9.13;;;3.00;;
1977;SDS011;989;53.016;8.346;2024-02-16T12:53:27;3.33;;;1.53;;
1977;SDS011;989;53.016;8.346;2024-02-16T12:55:55;3.80;;;2.70;;
1977;SDS011;989;53.016;8.346;2024-02-16T12:58:20;4.37;;;2.90;;
1977;SDS011;989;53.016;8.346;2024-02-16T13:00:46;5.50;;;2.80;;
1977;SDS011;989;53.016;8.346;2024-02-16T13:03:11;7.13;;;3.20;;
1977;SDS011;989;53.016;8.346;2024-02-16T13:05:36;4.07;;;2.80;;
1977;SDS011;989;53.016;8.346;2024-02-16T13:08:02;5.27;;;3.87;;
1977;SDS011;989;53.016;8.346;2024-02-16T13:10:27;3.27;;;2.83;;
1977;SDS011;989;53.016;8.346;2024-02-16T13:12:53;3.20;;;2.77;;
1977;SDS011;989;53.016;8.346;2024-02-16T13:15:18;3.30;;;3.00;;
1977;SDS011;989;53.016;8.346;2024-02-16T13:17:44;3.17;;;2.80;;
1977;SDS011;989;53.016;8.346;2024-02-16T13:20:09;5.30;;;3.13;;
1977;SDS011;989;53.016;8.346;2024-02-16T13:22:35;2.93;;;2.60;;
1977;SDS011;989;53.016;8.346;2024-02-16T13:25:02;2.90;;;2.50;;
1977;SDS011;989;53.016;8.346;2024-02-16T13:27:28;4.23;;;2.33;;
1977;SDS011;989;53.016;8.346;2024-02-16T13:29:54;3.90;;;2.53;;
1977;SDS011;989;53.016;8.346;2024-02-16T13:32:19;3.00;;;2.80;;
1977;SDS011;989;53.016;8.346;2024-02-16T13:34:44;2.77;;;2.57;;
1977;SDS011;989;53.016;8.346;2024-02-16T13:37:10;2.87;;;2.67;;
1977;SDS011;989;53.016;8.346;2024-02-16T13:39:36;2.90;;;2.00;;
1977;SDS011;989;53.016;8.346;2024-02-16T13:42:01;3.13;;;2.83;;
1977;SDS011;989;53.016;8.346;2024-02-16T13:44:26;3.90;;;3.47;;
1977;SDS011;989;53.016;8.346;2024-02-16T13:46:52;3.07;;;2.80;;
1977;SDS011;989;53.016;8.346;2024-02-16T13:49:17;1.90;;;1.80;;
1977;SDS011;989;53.016;8.346;2024-02-16T13:51:43;2.33;;;2.20;;
1977;SDS011;989;53.016;8.346;2024-02-16T13:54:08;2.97;;;2.77;;
1977;SDS011;989;53.016;8.346;2024-02-16T13:56:33;2.40;;;2.20;;
1977;SDS011;989;53.016;8.346;2024-02-16T13:59:01;2.90;;;2.10;;
1977;SDS011;989;53.016;8.346;2024-02-16T14:01:27;2.83;;;2.63;;
1977;SDS011;989;53.016;8.346;2024-02-16T14:03:54;2.40;;;2.30;;
1977;SDS011;989;53.016;8.346;2024-02-16T14:06:19;2.40;;;2.30;;
1977;SDS011;989;53.016;8.346;2024-02-16T14:08:45;2.37;;;2.27;;
1977;SDS011;989;53.016;8.346;2024-02-16T14:11:12;2.20;;;2.00;;
1977;SDS011;989;53.016;8.346;2024-02-16T14:13:38;2.43;;;2.33;;
1977;SDS011;989;53.016;8.346;2024-02-16T14:16:03;1.80;;;1.70;;
1977;SDS011;989;53.016;8.346;2024-02-16T14:18:29;2.60;;;2.40;;
1977;SDS011;989;53.016;8.346;2024-02-16T14:20:54;2.57;;;2.37;;
1977;SDS011;989;53.016;8.346;2024-02-16T14:23:20;2.87;;;2.77;;
1977;SDS011;989;53.016;8.346;2024-02-16T14:25:45;1.47;;;1.47;;
1977;SDS011;989;53.016;8.346;2024-02-16T14:28:11;11.73;;;3.20;;
1977;SDS011;989;53.016;8.346;2024-02-16T14:30:36;2.20;;;2.00;;
1977;SDS011;989;53.016;8.346;2024-02-16T14:33:02;3.20;;;2.90;;
1977;SDS011;989;53.016;8.346;2024-02-16T14:35:29;2.17;;;2.07;;
1977;SDS011;989;53.016;8.346;2024-02-16T14:37:56;2.40;;;2.20;;
1977;SDS011;989;53.016;8.346;2024-02-16T14:40:22;2.00;;;1.90;;
1977;SDS011;989;53.016;8.346;2024-02-16T14:42:47;1.93;;;1.83;;
1977;SDS011;989;53.016;8.346;2024-02-16T14:45:13;4.20;;;2.43;;
1977;SDS011;989;53.016;8.346;2024-02-16T14:47:44;1.67;;;1.60;;
1977;SDS011;989;53.016;8.346;2024-02-16T14:50:10;1.43;;;1.43;;
1977;SDS011;989;53.016;8.346;2024-02-16T14:52:38;2.33;;;2.23;;
1977;SDS011;989;53.016;8.346;2024-02-16T14:55:03;2.30;;;1.93;;
1977;SDS011;989;53.016;8.346;2024-02-16T14:57:29;2.10;;;2.00;;
1977;SDS011;989;53.016;8.346;2024-02-16T14:59:55;2.30;;;2.20;;
1977;SDS011;989;53.016;8.346;2024-02-16T15:02:22;2.03;;;1.93;;
1977;SDS011;989;53.016;8.346;2024-02-16T15:04:49;2.40;;;2.20;;
1977;SDS011;989;53.016;8.346;2024-02-16T15:07:20;2.60;;;2.40;;
1977;SDS011;989;53.016;8.346;2024-02-16T15:09:45;2.10;;;2.00;;
1977;SDS011;989;53.016;8.346;2024-02-16T15:12:11;2.83;;;2.63;;
1977;SDS011;989;53.016;8.346;2024-02-16T15:14:36;1.80;;;1.70;;
1977;SDS011;989;53.016;8.346;2024-02-16T15:17:01;2.03;;;1.87;;
1977;SDS011;989;53.016;8.346;2024-02-16T15:19:28;2.00;;;1.90;;
1977;SDS011;989;53.016;8.346;2024-02-16T15:21:53;1.80;;;1.70;;